sensor_id;sensor_type;location;lat;lon;timestamp;P1;durP1;ratioP1;P2;durP2;ratioP2
63693;SDS011;49839;51.798;10.954;2022-09-29T00:00:47;7.55;;;2.75;;
63693;SDS011;49839;51.798;10.954;2022-09-29T00:03:16;6.97;;;2.50;;
63693;SDS011;49839;51.798;10.954;2022-09-29T00:05:48;5.30;;;2.50;;
63693;SDS011;49839;51.798;10.954;2022-09-29T00:08:17;7.93;;;2.97;;
63693;SDS011;49839;51.798;10.954;2022-09-29T00:10:46;4.63;;;2.33;;
63693;SDS011;49839;51.798;10.954;2022-09-29T00:13:14;4.80;;;2.35;;
63693;SDS011;49839;51.798;10.954;2022-09-29T00:15:43;6.03;;;2.42;;
63693;SDS011;49839;51.798;10.954;2022-09-29T00:18:11;5.95;;;2.55;;
63693;SDS011;49839;51.798;10.954;2022-09-29T00:20:40;6.20;;;2.60;;
63693;SDS011;49839;51.798;10.954;2022-09-29T00:23:07;5.35;;;2.78;;
63693;SDS011;49839;51.798;10.954;2022-09-29T00:25:35;8.27;;;3.00;;
63693;SDS011;49839;51.798;10.954;2022-09-29T00:28:04;6.18;;;3.03;;
63693;SDS011;49839;51.798;10.954;2022-09-29T00:30:32;8.57;;;3.17;;
63693;SDS011;49839;51.798;10.954;2022-09-29T00:32:59;6.88;;;3.13;;
63693;SDS011;49839;51.798;10.954;2022-09-29T00:35:27;6.13;;;2.45;;
63693;SDS011;49839;51.798;10.954;2022-09-29T00:37:54;7.10;;;2.55;;
63693;SDS011;49839;51.798;10.954;2022-09-29T00:40:22;8.55;;;2.33;;
63693;SDS011;49839;51.798;10.954;2022-09-29T00:42:50;5.97;;;2.30;;
63693;SDS011;49839;51.798;10.954;2022-09-29T00:45:20;4.53;;;2.13;;
63693;SDS011;49839;51.798;10.954;2022-09-29T00:47:52;6.80;;;3.00;;
63693;SDS011;49839;51.798;10.954;2022-09-29T00:50:32;11.27;;;3.67;;
63693;SDS011;49839;51.798;10.954;2022-09-29T00:53:07;9.90;;;3.42;;
63693;SDS011;49839;51.798;10.954;2022-09-29T00:55:43;8.32;;;3.30;;
63693;SDS011;49839;51.798;10.954;2022-09-29T00:58:18;7.72;;;3.05;;
63693;SDS011;49839;51.798;10.954;2022-09-29T01:00:54;6.70;;;2.90;;
63693;SDS011;49839;51.798;10.954;2022-09-29T01:03:22;6.07;;;2.78;;
63693;SDS011;49839;51.798;10.954;2022-09-29T01:05:53;4.50;;;2.25;;
63693;SDS011;49839;51.798;10.954;2022-09-29T01:08:27;5.78;;;2.42;;
63693;SDS011;49839;51.798;10.954;2022-09-29T01:11:00;4.50;;;2.42;;
63693;SDS011;49839;51.798;10.954;2022-09-29T01:13:28;6.60;;;2.92;;
63693;SDS011;49839;51.798;10.954;2022-09-29T01:15:59;5.03;;;2.33;;
63693;SDS011;49839;51.798;10.954;2022-09-29T01:18:27;11.32;;;2.88;;
63693;SDS011;49839;51.798;10.954;2022-09-29T01:20:56;5.22;;;2.70;;
63693;SDS011;49839;51.798;10.954;2022-09-29T01:23:45;5.15;;;2.70;;
63693;SDS011;49839;51.798;10.954;2022-09-29T01:26:41;7.70;;;2.55;;
63693;SDS011;49839;51.798;10.954;2022-09-29T01:35:49;7.07;;;2.60;;
63693;SDS011;49839;51.798;10.954;2022-09-29T01:38:29;5.15;;;2.25;;
63693;SDS011;49839;51.798;10.954;2022-09-29T01:41:09;7.32;;;2.40;;
63693;SDS011;49839;51.798;10.954;2022-09-29T01:43:41;4.68;;;2.20;;
63693;SDS011;49839;51.798;10.954;2022-09-29T01:46:15;6.30;;;2.50;;
63693;SDS011;49839;51.798;10.954;2022-09-29T01:48:52;7.95;;;2.70;;
63693;SDS011;49839;51.798;10.954;2022-09-29T01:51:24;6.13;;;2.60;;
63693;SDS011;49839;51.798;10.954;2022-09-29T01:53:56;7.47;;;2.45;;
63693;SDS011;49839;51.798;10.954;2022-09-29T01:56:33;6.13;;;2.38;;
63693;SDS011;49839;51.798;10.954;2022-09-29T01:59:05;5.97;;;3.67;;
63693;SDS011;49839;51.798;10.954;2022-09-29T02:01:39;8.68;;;2.38;;
63693;SDS011;49839;51.798;10.954;2022-09-29T02:04:12;9.30;;;2.88;;
63693;SDS011;49839;51.798;10.954;2022-09-29T02:06:46;7.82;;;2.90;;
63693;SDS011;49839;51.798;10.954;2022-09-29T02:09:21;4.93;;;2.25;;
63693;SDS011;49839;51.798;10.954;2022-09-29T02:11:54;5.25;;;2.30;;
63693;SDS011;49839;51.798;10.954;2022-09-29T02:14:26;5.82;;;2.45;;
63693;SDS011;49839;51.798;10.954;2022-09-29T02:16:57;9.38;;;2.35;;
63693;SDS011;49839;51.798;10.954;2022-09-29T02:19:34;12.75;;;2.65;;
63693;SDS011;49839;51.798;10.954;2022-09-29T02:22:05;6.68;;;2.55;;
63693;SDS011;49839;51.798;10.954;2022-09-29T02:24:33;7.13;;;2.88;;
63693;SDS011;49839;51.798;10.954;2022-09-29T02:27:01;5.10;;;2.90;;
63693;SDS011;49839;51.798;10.954;2022-09-29T02:29:30;8.98;;;2.53;;
63693;SDS011;49839;51.798;10.954;2022-09-29T02:31:59;10.07;;;2.60;;
63693;SDS011;49839;51.798;10.954;2022-09-29T02:34:28;8.95;;;2.90;;
63693;SDS011;49839;51.798;10.954;2022-09-29T02:37:01;5.70;;;2.20;;
63693;SDS011;49839;51.798;10.954;2022-09-29T02:39:36;7.45;;;2.47;;
63693;SDS011;49839;51.798;10.954;2022-09-29T02:42:12;8.02;;;2.92;;
63693;SDS011;49839;51.798;10.954;2022-09-29T02:44:50;17.30;;;7.03;;
63693;SDS011;49839;51.798;10.954;2022-09-29T02:47:30;15.00;;;5.60;;
63693;SDS011;49839;51.798;10.954;2022-09-29T02:50:19;9.65;;;4.30;;
63693;SDS011;49839;51.798;10.954;2022-09-29T02:52:59;6.30;;;2.80;;
63693;SDS011;49839;51.798;10.954;2022-09-29T02:55:36;6.72;;;3.13;;
63693;SDS011;49839;51.798;10.954;2022-09-29T02:58:11;9.45;;;3.50;;
63693;SDS011;49839;51.798;10.954;2022-09-29T03:00:45;10.63;;;3.30;;
63693;SDS011;49839;51.798;10.954;2022-09-29T03:03:13;8.50;;;3.50;;
63693;SDS011;49839;51.798;10.954;2022-09-29T03:05:41;6.03;;;3.55;;
63693;SDS011;49839;51.798;10.954;2022-09-29T03:08:10;11.63;;;3.08;;
63693;SDS011;49839;51.798;10.954;2022-09-29T03:10:38;9.83;;;2.77;;
63693;SDS011;49839;51.798;10.954;2022-09-29T03:13:05;10.80;;;2.75;;
63693;SDS011;49839;51.798;10.954;2022-09-29T03:15:33;7.55;;;2.83;;
63693;SDS011;49839;51.798;10.954;2022-09-29T03:18:00;10.43;;;2.85;;
63693;SDS011;49839;51.798;10.954;2022-09-29T03:20:34;7.32;;;2.40;;
63693;SDS011;49839;51.798;10.954;2022-09-29T03:23:02;9.15;;;2.67;;
63693;SDS011;49839;51.798;10.954;2022-09-29T03:25:31;9.48;;;3.00;;
63693;SDS011;49839;51.798;10.954;2022-09-29T03:27:59;7.70;;;3.10;;
63693;SDS011;49839;51.798;10.954;2022-09-29T03:30:26;6.65;;;2.65;;
63693;SDS011;49839;51.798;10.954;2022-09-29T03:32:54;10.00;;;3.40;;
63693;SDS011;49839;51.798;10.954;2022-09-29T03:35:22;5.82;;;2.70;;
63693;SDS011;49839;51.798;10.954;2022-09-29T03:37:49;5.30;;;2.70;;
63693;SDS011;49839;51.798;10.954;2022-09-29T03:40:18;6.05;;;2.78;;
63693;SDS011;49839;51.798;10.954;2022-09-29T03:42:47;6.28;;;2.72;;
63693;SDS011;49839;51.798;10.954;2022-09-29T03:45:15;9.27;;;2.83;;
63693;SDS011;49839;51.798;10.954;2022-09-29T03:47:42;9.35;;;3.05;;
63693;SDS011;49839;51.798;10.954;2022-09-29T03:50:10;8.65;;;2.67;;
63693;SDS011;49839;51.798;10.954;2022-09-29T03:52:39;8.25;;;2.60;;
63693;SDS011;49839;51.798;10.954;2022-09-29T03:55:07;9.00;;;3.13;;
63693;SDS011;49839;51.798;10.954;2022-09-29T03:57:35;5.97;;;2.78;;
63693;SDS011;49839;51.798;10.954;2022-09-29T04:00:05;10.73;;;2.80;;
63693;SDS011;49839;51.798;10.954;2022-09-29T04:02:33;6.43;;;2.13;;
63693;SDS011;49839;51.798;10.954;2022-09-29T04:05:01;7.13;;;2.17;;
63693;SDS011;49839;51.798;10.954;2022-09-29T04:07:29;6.20;;;2.50;;
63693;SDS011;49839;51.798;10.954;2022-09-29T04:09:57;9.95;;;3.15;;
63693;SDS011;49839;51.798;10.954;2022-09-29T04:12:25;11.07;;;3.20;;
63693;SDS011;49839;51.798;10.954;2022-09-29T04:14:53;10.73;;;3.22;;
63693;SDS011;49839;51.798;10.954;2022-09-29T04:17:22;8.45;;;3.15;;
63693;SDS011;49839;51.798;10.954;2022-09-29T04:19:49;9.87;;;3.57;;
63693;SDS011;49839;51.798;10.954;2022-09-29T04:22:17;7.40;;;3.38;;
63693;SDS011;49839;51.798;10.954;2022-09-29T04:24:45;7.85;;;3.67;;
63693;SDS011;49839;51.798;10.954;2022-09-29T04:27:13;5.88;;;2.53;;
63693;SDS011;49839;51.798;10.954;2022-09-29T04:29:41;10.55;;;3.20;;
63693;SDS011;49839;51.798;10.954;2022-09-29T04:32:09;10.15;;;3.17;;
63693;SDS011;49839;51.798;10.954;2022-09-29T04:34:38;10.85;;;2.83;;
63693;SDS011;49839;51.798;10.954;2022-09-29T04:37:06;9.00;;;3.03;;
63693;SDS011;49839;51.798;10.954;2022-09-29T04:39:36;6.75;;;3.30;;
63693;SDS011;49839;51.798;10.954;2022-09-29T04:42:04;7.53;;;3.28;;
63693;SDS011;49839;51.798;10.954;2022-09-29T04:44:31;7.63;;;3.40;;
63693;SDS011;49839;51.798;10.954;2022-09-29T04:46:59;11.30;;;3.72;;
63693;SDS011;49839;51.798;10.954;2022-09-29T04:49:27;7.15;;;3.45;;
63693;SDS011;49839;51.798;10.954;2022-09-29T04:51:56;7.18;;;3.97;;
63693;SDS011;49839;51.798;10.954;2022-09-29T04:54:24;13.48;;;8.38;;
63693;SDS011;49839;51.798;10.954;2022-09-29T04:56:52;15.02;;;7.85;;
63693;SDS011;49839;51.798;10.954;2022-09-29T04:59:19;15.27;;;8.45;;
63693;SDS011;49839;51.798;10.954;2022-09-29T05:01:47;12.73;;;5.70;;
63693;SDS011;49839;51.798;10.954;2022-09-29T05:04:15;10.18;;;5.05;;
63693;SDS011;49839;51.798;10.954;2022-09-29T05:06:43;10.68;;;5.18;;
63693;SDS011;49839;51.798;10.954;2022-09-29T05:09:12;10.18;;;6.18;;
63693;SDS011;49839;51.798;10.954;2022-09-29T05:11:40;15.85;;;7.75;;
63693;SDS011;49839;51.798;10.954;2022-09-29T05:14:09;13.05;;;7.80;;
63693;SDS011;49839;51.798;10.954;2022-09-29T05:16:36;11.52;;;7.00;;
63693;SDS011;49839;51.798;10.954;2022-09-29T05:19:04;11.75;;;6.97;;
63693;SDS011;49839;51.798;10.954;2022-09-29T05:21:32;13.75;;;7.22;;
63693;SDS011;49839;51.798;10.954;2022-09-29T05:24:00;12.73;;;6.50;;
63693;SDS011;49839;51.798;10.954;2022-09-29T05:26:29;13.05;;;7.60;;
63693;SDS011;49839;51.798;10.954;2022-09-29T05:28:57;14.65;;;7.60;;
63693;SDS011;49839;51.798;10.954;2022-09-29T05:31:25;13.88;;;8.27;;
63693;SDS011;49839;51.798;10.954;2022-09-29T05:33:53;13.68;;;6.95;;
63693;SDS011;49839;51.798;10.954;2022-09-29T05:36:21;13.63;;;6.85;;
63693;SDS011;49839;51.798;10.954;2022-09-29T05:38:49;12.57;;;7.45;;
63693;SDS011;49839;51.798;10.954;2022-09-29T05:41:18;15.52;;;7.43;;
63693;SDS011;49839;51.798;10.954;2022-09-29T05:43:49;13.05;;;8.10;;
63693;SDS011;49839;51.798;10.954;2022-09-29T05:46:19;14.40;;;8.02;;
63693;SDS011;49839;51.798;10.954;2022-09-29T05:48:47;14.45;;;8.95;;
63693;SDS011;49839;51.798;10.954;2022-09-29T05:51:17;15.48;;;8.68;;
63693;SDS011;49839;51.798;10.954;2022-09-29T05:53:48;11.77;;;7.07;;
63693;SDS011;49839;51.798;10.954;2022-09-29T05:56:17;13.57;;;7.60;;
63693;SDS011;49839;51.798;10.954;2022-09-29T05:58:50;13.00;;;8.13;;
63693;SDS011;49839;51.798;10.954;2022-09-29T06:03:48;12.15;;;7.40;;
63693;SDS011;49839;51.798;10.954;2022-09-29T06:06:17;20.30;;;8.43;;
63693;SDS011;49839;51.798;10.954;2022-09-29T06:08:47;18.45;;;8.77;;
63693;SDS011;49839;51.798;10.954;2022-09-29T06:11:16;12.65;;;8.63;;
63693;SDS011;49839;51.798;10.954;2022-09-29T06:13:45;14.48;;;8.65;;
63693;SDS011;49839;51.798;10.954;2022-09-29T06:16:16;15.00;;;8.88;;
63693;SDS011;49839;51.798;10.954;2022-09-29T06:18:45;12.93;;;7.65;;
63693;SDS011;49839;51.798;10.954;2022-09-29T06:21:14;12.05;;;7.53;;
63693;SDS011;49839;51.798;10.954;2022-09-29T06:23:43;15.52;;;7.88;;
63693;SDS011;49839;51.798;10.954;2022-09-29T06:26:12;14.50;;;8.15;;
63693;SDS011;49839;51.798;10.954;2022-09-29T06:28:46;17.15;;;8.43;;
63693;SDS011;49839;51.798;10.954;2022-09-29T06:31:16;15.02;;;8.10;;
63693;SDS011;49839;51.798;10.954;2022-09-29T06:33:45;12.65;;;7.72;;
63693;SDS011;49839;51.798;10.954;2022-09-29T06:36:14;11.32;;;8.13;;
63693;SDS011;49839;51.798;10.954;2022-09-29T06:39:02;13.32;;;9.02;;
63693;SDS011;49839;51.798;10.954;2022-09-29T06:41:31;13.47;;;8.00;;
63693;SDS011;49839;51.798;10.954;2022-09-29T06:43:59;11.93;;;7.53;;
63693;SDS011;49839;51.798;10.954;2022-09-29T06:46:29;14.25;;;8.48;;
63693;SDS011;49839;51.798;10.954;2022-09-29T06:48:57;13.15;;;8.68;;
63693;SDS011;49839;51.798;10.954;2022-09-29T06:51:25;12.20;;;7.93;;
63693;SDS011;49839;51.798;10.954;2022-09-29T06:54:06;9.80;;;6.53;;
63693;SDS011;49839;51.798;10.954;2022-09-29T06:56:37;11.57;;;6.68;;
63693;SDS011;49839;51.798;10.954;2022-09-29T06:59:05;8.25;;;6.10;;
63693;SDS011;49839;51.798;10.954;2022-09-29T07:01:34;9.45;;;5.95;;
63693;SDS011;49839;51.798;10.954;2022-09-29T07:04:02;10.65;;;8.68;;
63693;SDS011;49839;51.798;10.954;2022-09-29T07:06:30;9.82;;;7.22;;
63693;SDS011;49839;51.798;10.954;2022-09-29T07:08:57;18.45;;;14.55;;
63693;SDS011;49839;51.798;10.954;2022-09-29T07:11:26;19.55;;;14.50;;
63693;SDS011;49839;51.798;10.954;2022-09-29T07:13:54;13.38;;;11.75;;
63693;SDS011;49839;51.798;10.954;2022-09-29T07:16:22;9.38;;;7.05;;
63693;SDS011;49839;51.798;10.954;2022-09-29T07:18:51;9.75;;;6.35;;
63693;SDS011;49839;51.798;10.954;2022-09-29T07:21:19;9.93;;;6.07;;
63693;SDS011;49839;51.798;10.954;2022-09-29T07:23:47;9.73;;;6.63;;
63693;SDS011;49839;51.798;10.954;2022-09-29T07:26:16;8.30;;;6.10;;
63693;SDS011;49839;51.798;10.954;2022-09-29T07:28:44;9.48;;;7.15;;
63693;SDS011;49839;51.798;10.954;2022-09-29T07:31:13;10.90;;;6.30;;
63693;SDS011;49839;51.798;10.954;2022-09-29T07:33:42;11.18;;;6.53;;
63693;SDS011;49839;51.798;10.954;2022-09-29T07:36:13;11.38;;;7.13;;
63693;SDS011;49839;51.798;10.954;2022-09-29T07:38:43;10.07;;;7.03;;
63693;SDS011;49839;51.798;10.954;2022-09-29T07:41:12;8.85;;;6.55;;
63693;SDS011;49839;51.798;10.954;2022-09-29T07:43:40;8.70;;;6.57;;
63693;SDS011;49839;51.798;10.954;2022-09-29T07:46:08;9.52;;;6.38;;
63693;SDS011;49839;51.798;10.954;2022-09-29T07:48:36;8.82;;;6.72;;
63693;SDS011;49839;51.798;10.954;2022-09-29T07:51:05;8.57;;;5.45;;
63693;SDS011;49839;51.798;10.954;2022-09-29T07:53:36;7.43;;;5.43;;
63693;SDS011;49839;51.798;10.954;2022-09-29T07:56:05;7.47;;;5.47;;
63693;SDS011;49839;51.798;10.954;2022-09-29T07:58:34;7.53;;;5.75;;
63693;SDS011;49839;51.798;10.954;2022-09-29T08:01:03;7.83;;;5.40;;
63693;SDS011;49839;51.798;10.954;2022-09-29T08:03:35;7.25;;;5.55;;
63693;SDS011;49839;51.798;10.954;2022-09-29T08:06:04;8.60;;;5.73;;
63693;SDS011;49839;51.798;10.954;2022-09-29T08:08:33;8.30;;;5.05;;
63693;SDS011;49839;51.798;10.954;2022-09-29T08:11:04;7.68;;;5.07;;
63693;SDS011;49839;51.798;10.954;2022-09-29T08:13:33;8.00;;;5.18;;
63693;SDS011;49839;51.798;10.954;2022-09-29T08:16:02;7.90;;;5.28;;
63693;SDS011;49839;51.798;10.954;2022-09-29T08:20:59;9.70;;;5.30;;
63693;SDS011;49839;51.798;10.954;2022-09-29T08:23:29;7.97;;;4.35;;
63693;SDS011;49839;51.798;10.954;2022-09-29T08:25:58;7.85;;;4.43;;
63693;SDS011;49839;51.798;10.954;2022-09-29T08:28:29;7.00;;;4.03;;
63693;SDS011;49839;51.798;10.954;2022-09-29T08:31:00;8.18;;;4.00;;
63693;SDS011;49839;51.798;10.954;2022-09-29T08:33:29;8.25;;;4.15;;
63693;SDS011;49839;51.798;10.954;2022-09-29T08:35:58;7.23;;;4.00;;
63693;SDS011;49839;51.798;10.954;2022-09-29T08:38:28;6.25;;;3.35;;
63693;SDS011;49839;51.798;10.954;2022-09-29T08:43:30;6.50;;;3.58;;
63693;SDS011;49839;51.798;10.954;2022-09-29T08:46:04;5.75;;;3.50;;
63693;SDS011;49839;51.798;10.954;2022-09-29T08:48:38;7.00;;;4.05;;
63693;SDS011;49839;51.798;10.954;2022-09-29T08:51:24;6.65;;;3.45;;
63693;SDS011;49839;51.798;10.954;2022-09-29T08:54:07;6.88;;;3.08;;
63693;SDS011;49839;51.798;10.954;2022-09-29T08:59:14;5.78;;;3.20;;
63693;SDS011;49839;51.798;10.954;2022-09-29T09:01:46;6.15;;;3.22;;
63693;SDS011;49839;51.798;10.954;2022-09-29T09:04:32;6.57;;;3.08;;
63693;SDS011;49839;51.798;10.954;2022-09-29T09:07:14;5.03;;;3.00;;
63693;SDS011;49839;51.798;10.954;2022-09-29T09:09:50;4.60;;;2.58;;
63693;SDS011;49839;51.798;10.954;2022-09-29T09:12:33;4.43;;;2.30;;
63693;SDS011;49839;51.798;10.954;2022-09-29T09:15:18;4.60;;;2.42;;
63693;SDS011;49839;51.798;10.954;2022-09-29T09:18:02;3.42;;;2.10;;
63693;SDS011;49839;51.798;10.954;2022-09-29T09:20:43;4.50;;;2.40;;
63693;SDS011;49839;51.798;10.954;2022-09-29T09:23:17;3.58;;;1.80;;
63693;SDS011;49839;51.798;10.954;2022-09-29T09:25:48;4.50;;;2.10;;
63693;SDS011;49839;51.798;10.954;2022-09-29T09:28:21;4.22;;;2.00;;
63693;SDS011;49839;51.798;10.954;2022-09-29T09:30:55;7.18;;;2.40;;
63693;SDS011;49839;51.798;10.954;2022-09-29T09:33:28;5.28;;;2.10;;
63693;SDS011;49839;51.798;10.954;2022-09-29T09:36:04;5.20;;;2.08;;
63693;SDS011;49839;51.798;10.954;2022-09-29T09:38:40;4.45;;;2.60;;
63693;SDS011;49839;51.798;10.954;2022-09-29T09:41:15;5.25;;;2.20;;
63693;SDS011;49839;51.798;10.954;2022-09-29T09:43:47;5.25;;;2.20;;
63693;SDS011;49839;51.798;10.954;2022-09-29T09:46:21;4.97;;;2.05;;
63693;SDS011;49839;51.798;10.954;2022-09-29T09:48:59;3.80;;;2.38;;
63693;SDS011;49839;51.798;10.954;2022-09-29T09:51:37;4.28;;;2.28;;
63693;SDS011;49839;51.798;10.954;2022-09-29T09:54:13;4.55;;;2.58;;
63693;SDS011;49839;51.798;10.954;2022-09-29T09:56:50;4.75;;;2.42;;
63693;SDS011;49839;51.798;10.954;2022-09-29T09:59:31;6.55;;;2.90;;
63693;SDS011;49839;51.798;10.954;2022-09-29T10:02:13;5.65;;;3.10;;
63693;SDS011;49839;51.798;10.954;2022-09-29T10:04:45;4.38;;;2.72;;
63693;SDS011;49839;51.798;10.954;2022-09-29T10:07:16;5.55;;;3.15;;
63693;SDS011;49839;51.798;10.954;2022-09-29T10:09:44;9.55;;;3.03;;
63693;SDS011;49839;51.798;10.954;2022-09-29T10:12:13;5.70;;;2.60;;
63693;SDS011;49839;51.798;10.954;2022-09-29T10:14:44;8.30;;;3.17;;
63693;SDS011;49839;51.798;10.954;2022-09-29T10:17:20;7.53;;;2.90;;
63693;SDS011;49839;51.798;10.954;2022-09-29T10:19:52;6.63;;;2.70;;
63693;SDS011;49839;51.798;10.954;2022-09-29T10:22:23;7.53;;;2.85;;
63693;SDS011;49839;51.798;10.954;2022-09-29T10:24:52;4.85;;;2.67;;
63693;SDS011;49839;51.798;10.954;2022-09-29T10:27:23;5.78;;;2.50;;
63693;SDS011;49839;51.798;10.954;2022-09-29T10:29:52;3.95;;;2.60;;
63693;SDS011;49839;51.798;10.954;2022-09-29T10:32:25;5.45;;;2.97;;
63693;SDS011;49839;51.798;10.954;2022-09-29T10:35:03;4.35;;;2.33;;
63693;SDS011;49839;51.798;10.954;2022-09-29T10:37:37;4.65;;;2.40;;
63693;SDS011;49839;51.798;10.954;2022-09-29T10:40:15;4.35;;;2.30;;
63693;SDS011;49839;51.798;10.954;2022-09-29T10:42:47;4.37;;;2.60;;
63693;SDS011;49839;51.798;10.954;2022-09-29T10:45:16;6.05;;;3.20;;
63693;SDS011;49839;51.798;10.954;2022-09-29T10:47:47;5.18;;;3.28;;
63693;SDS011;49839;51.798;10.954;2022-09-29T10:50:34;6.18;;;3.78;;
63693;SDS011;49839;51.798;10.954;2022-09-29T10:53:05;7.05;;;4.20;;
63693;SDS011;49839;51.798;10.954;2022-09-29T10:55:48;6.75;;;4.20;;
63693;SDS011;49839;51.798;10.954;2022-09-29T10:58:21;5.63;;;2.90;;
63693;SDS011;49839;51.798;10.954;2022-09-29T11:01:14;4.22;;;2.50;;
63693;SDS011;49839;51.798;10.954;2022-09-29T11:03:46;5.25;;;3.05;;
63693;SDS011;49839;51.798;10.954;2022-09-29T11:06:23;4.70;;;2.90;;
63693;SDS011;49839;51.798;10.954;2022-09-29T11:08:57;4.78;;;3.00;;
63693;SDS011;49839;51.798;10.954;2022-09-29T11:11:27;5.00;;;3.25;;
63693;SDS011;49839;51.798;10.954;2022-09-29T11:13:58;4.90;;;2.92;;
63693;SDS011;49839;51.798;10.954;2022-09-29T11:16:27;5.57;;;3.20;;
63693;SDS011;49839;51.798;10.954;2022-09-29T11:18:59;4.72;;;2.80;;
63693;SDS011;49839;51.798;10.954;2022-09-29T11:21:36;6.13;;;3.80;;
63693;SDS011;49839;51.798;10.954;2022-09-29T11:24:33;5.68;;;3.53;;
63693;SDS011;49839;51.798;10.954;2022-09-29T11:27:26;5.65;;;3.45;;
63693;SDS011;49839;51.798;10.954;2022-09-29T11:30:02;6.65;;;4.57;;
63693;SDS011;49839;51.798;10.954;2022-09-29T11:32:38;9.07;;;5.63;;
63693;SDS011;49839;51.798;10.954;2022-09-29T11:35:19;7.00;;;4.50;;
63693;SDS011;49839;51.798;10.954;2022-09-29T11:38:04;7.93;;;4.80;;
63693;SDS011;49839;51.798;10.954;2022-09-29T11:40:45;10.57;;;4.93;;
63693;SDS011;49839;51.798;10.954;2022-09-29T11:43:27;9.40;;;5.07;;
63693;SDS011;49839;51.798;10.954;2022-09-29T11:46:10;7.30;;;4.60;;
63693;SDS011;49839;51.798;10.954;2022-09-29T11:48:55;7.30;;;4.97;;
63693;SDS011;49839;51.798;10.954;2022-09-29T11:51:41;7.93;;;5.55;;
63693;SDS011;49839;51.798;10.954;2022-09-29T11:54:26;8.43;;;5.13;;
63693;SDS011;49839;51.798;10.954;2022-09-29T11:57:08;7.60;;;5.50;;
63693;SDS011;49839;51.798;10.954;2022-09-29T11:59:47;7.15;;;4.43;;
63693;SDS011;49839;51.798;10.954;2022-09-29T12:05:34;8.05;;;5.30;;
63693;SDS011;49839;51.798;10.954;2022-09-29T12:08:14;6.68;;;4.70;;
63693;SDS011;49839;51.798;10.954;2022-09-29T12:10:54;8.45;;;4.50;;
63693;SDS011;49839;51.798;10.954;2022-09-29T12:13:50;6.20;;;4.28;;
63693;SDS011;49839;51.798;10.954;2022-09-29T12:16:23;6.07;;;4.20;;
63693;SDS011;49839;51.798;10.954;2022-09-29T12:18:56;9.27;;;4.60;;
63693;SDS011;49839;51.798;10.954;2022-09-29T12:21:30;6.57;;;4.30;;
63693;SDS011;49839;51.798;10.954;2022-09-29T12:24:02;7.82;;;4.30;;
63693;SDS011;49839;51.798;10.954;2022-09-29T12:26:36;8.15;;;5.18;;
63693;SDS011;49839;51.798;10.954;2022-09-29T12:29:06;8.98;;;6.28;;
63693;SDS011;49839;51.798;10.954;2022-09-29T12:31:53;7.65;;;5.60;;
63693;SDS011;49839;51.798;10.954;2022-09-29T12:34:25;6.22;;;4.20;;
63693;SDS011;49839;51.798;10.954;2022-09-29T12:36:59;6.78;;;5.03;;
63693;SDS011;49839;51.798;10.954;2022-09-29T12:39:36;7.13;;;4.80;;
63693;SDS011;49839;51.798;10.954;2022-09-29T12:42:12;8.02;;;5.50;;
63693;SDS011;49839;51.798;10.954;2022-09-29T12:44:50;6.80;;;4.50;;
63693;SDS011;49839;51.798;10.954;2022-09-29T12:47:24;7.78;;;4.55;;
63693;SDS011;49839;51.798;10.954;2022-09-29T12:50:04;10.70;;;4.95;;
63693;SDS011;49839;51.798;10.954;2022-09-29T12:52:39;6.38;;;4.30;;
63693;SDS011;49839;51.798;10.954;2022-09-29T12:55:16;8.77;;;4.50;;
63693;SDS011;49839;51.798;10.954;2022-09-29T12:57:50;6.05;;;4.47;;
63693;SDS011;49839;51.798;10.954;2022-09-29T13:00:22;6.28;;;4.43;;
63693;SDS011;49839;51.798;10.954;2022-09-29T13:05:52;6.50;;;4.57;;
63693;SDS011;49839;51.798;10.954;2022-09-29T13:11:40;6.63;;;4.30;;
63693;SDS011;49839;51.798;10.954;2022-09-29T13:14:24;8.57;;;4.20;;
63693;SDS011;49839;51.798;10.954;2022-09-29T13:17:11;11.15;;;8.25;;
63693;SDS011;49839;51.798;10.954;2022-09-29T13:19:50;6.13;;;4.07;;
63693;SDS011;49839;51.798;10.954;2022-09-29T13:22:45;6.65;;;4.30;;
63693;SDS011;49839;51.798;10.954;2022-09-29T13:25:27;5.82;;;3.95;;
63693;SDS011;49839;51.798;10.954;2022-09-29T13:28:14;6.65;;;3.95;;
63693;SDS011;49839;51.798;10.954;2022-09-29T13:30:51;6.47;;;4.00;;
63693;SDS011;49839;51.798;10.954;2022-09-29T13:33:22;7.13;;;3.78;;
63693;SDS011;49839;51.798;10.954;2022-09-29T13:35:51;5.82;;;3.70;;
63693;SDS011;49839;51.798;10.954;2022-09-29T13:38:20;7.93;;;4.03;;
63693;SDS011;49839;51.798;10.954;2022-09-29T13:41:10;8.23;;;3.60;;
63693;SDS011;49839;51.798;10.954;2022-09-29T13:46:47;6.20;;;3.53;;
63693;SDS011;49839;51.798;10.954;2022-09-29T13:49:23;10.18;;;3.40;;
63693;SDS011;49839;51.798;10.954;2022-09-29T13:51:53;8.63;;;3.15;;
63693;SDS011;49839;51.798;10.954;2022-09-29T13:56:59;21.88;;;4.72;;
63693;SDS011;49839;51.798;10.954;2022-09-29T13:59:33;17.85;;;3.88;;
63693;SDS011;49839;51.798;10.954;2022-09-29T14:02:12;8.65;;;2.95;;
63693;SDS011;49839;51.798;10.954;2022-09-29T14:04:50;8.30;;;2.33;;
63693;SDS011;49839;51.798;10.954;2022-09-29T14:07:35;6.60;;;2.90;;
63693;SDS011;49839;51.798;10.954;2022-09-29T14:10:12;4.47;;;2.42;;
63693;SDS011;49839;51.798;10.954;2022-09-29T14:12:48;8.50;;;2.13;;
63693;SDS011;49839;51.798;10.954;2022-09-29T14:15:22;5.90;;;2.22;;
63693;SDS011;49839;51.798;10.954;2022-09-29T14:17:53;7.82;;;1.70;;
63693;SDS011;49839;51.798;10.954;2022-09-29T14:20:25;3.55;;;1.63;;
63693;SDS011;49839;51.798;10.954;2022-09-29T14:22:58;4.70;;;1.63;;
63693;SDS011;49839;51.798;10.954;2022-09-29T14:28:24;4.07;;;1.10;;
63693;SDS011;49839;51.798;10.954;2022-09-29T14:31:01;2.88;;;1.42;;
63693;SDS011;49839;51.798;10.954;2022-09-29T14:33:33;3.47;;;1.83;;
63693;SDS011;49839;51.798;10.954;2022-09-29T14:36:09;1.83;;;1.02;;
63693;SDS011;49839;51.798;10.954;2022-09-29T14:38:41;2.85;;;1.10;;
63693;SDS011;49839;51.798;10.954;2022-09-29T14:41:26;2.88;;;0.85;;
63693;SDS011;49839;51.798;10.954;2022-09-29T14:43:58;1.67;;;0.98;;
63693;SDS011;49839;51.798;10.954;2022-09-29T14:46:36;3.25;;;1.27;;
63693;SDS011;49839;51.798;10.954;2022-09-29T14:52:28;4.45;;;1.30;;
63693;SDS011;49839;51.798;10.954;2022-09-29T14:55:05;2.47;;;1.38;;
63693;SDS011;49839;51.798;10.954;2022-09-29T14:57:45;3.00;;;1.08;;
63693;SDS011;49839;51.798;10.954;2022-09-29T15:00:23;1.92;;;1.42;;
63693;SDS011;49839;51.798;10.954;2022-09-29T15:03:00;4.57;;;2.33;;
63693;SDS011;49839;51.798;10.954;2022-09-29T15:05:48;11.00;;;9.63;;
63693;SDS011;49839;51.798;10.954;2022-09-29T15:08:30;4.40;;;2.42;;
63693;SDS011;49839;51.798;10.954;2022-09-29T15:11:00;3.47;;;1.65;;
63693;SDS011;49839;51.798;10.954;2022-09-29T15:13:32;6.90;;;4.90;;
63693;SDS011;49839;51.798;10.954;2022-09-29T15:16:01;5.88;;;2.60;;
63693;SDS011;49839;51.798;10.954;2022-09-29T15:18:39;4.10;;;1.80;;
63693;SDS011;49839;51.798;10.954;2022-09-29T15:21:25;3.20;;;1.33;;
63693;SDS011;49839;51.798;10.954;2022-09-29T15:24:12;3.30;;;1.20;;
63693;SDS011;49839;51.798;10.954;2022-09-29T15:26:53;5.20;;;2.72;;
63693;SDS011;49839;51.798;10.954;2022-09-29T15:29:21;3.35;;;1.67;;
63693;SDS011;49839;51.798;10.954;2022-09-29T15:31:50;3.35;;;1.67;;
63693;SDS011;49839;51.798;10.954;2022-09-29T15:34:20;3.00;;;1.40;;
63693;SDS011;49839;51.798;10.954;2022-09-29T15:36:51;5.22;;;2.03;;
63693;SDS011;49839;51.798;10.954;2022-09-29T15:39:36;2.20;;;1.20;;
63693;SDS011;49839;51.798;10.954;2022-09-29T15:42:12;3.17;;;1.50;;